Time;durP1;ratioP1;P1;durP2;ratioP2;P2;SDS_P1;SDS_P2;PMS_P1;PMS_P2;Temp;Humidity;BMP_temperature;BMP_pressure;BME280_temperature;BME280_humidity;BME280_pressure;Samples;Min_cycle;Max_cycle;Signal;HPM_P1;HPM_P2
2022/01/20 00:00:32;;;;;;;3.70;2.92;;;4.10;99.90;;;;;;5016212;28;20187;-68
2022/01/20 00:03:01;;;;;;;2.03;1.92;;;4.10;99.90;;;;;;5015260;28;20186;-67
2022/01/20 00:05:34;;;;;;;2.38;2.17;;;4.10;99.90;;;;;;5015611;28;20167;-69
2022/01/20 00:26:55;;;;;;;2.63;2.38;;;3.90;99.90;;;;;;5014164;28;20700;-67
2022/01/20 00:29:27;;;;;;;3.00;2.70;;;3.90;99.90;;;;;;5014150;28;20285;-68
2022/01/20 00:32:09;;;;;;;2.33;2.20;;;3.90;99.90;;;;;;5014326;28;20198;-69
2022/01/20 00:37:21;;;;;;;2.92;2.53;;;3.90;99.90;;;;;;5014384;28;20529;-69
2022/01/20 00:39:46;;;;;;;3.40;3.10;;;3.90;99.90;;;;;;5014528;28;20194;-68
2022/01/20 00:42:12;;;;;;;5.73;2.87;;;3.90;99.90;;;;;;5013940;28;20174;-68
2022/01/20 00:44:38;;;;;;;4.10;2.83;;;3.90;99.90;;;;;;5012718;28;20182;-69
2022/01/20 00:47:03;;;;;;;2.37;2.27;;;3.90;99.90;;;;;;5013310;28;20222;-68
2022/01/20 00:49:29;;;;;;;3.20;1.97;;;3.90;99.90;;;;;;5013375;28;20199;-71
2022/01/20 00:51:55;;;;;;;1.73;1.63;;;4.00;99.90;;;;;;5014066;28;20559;-69
2022/01/20 00:54:21;;;;;;;2.77;1.97;;;4.00;99.90;;;;;;5014106;28;20246;-68
2022/01/20 00:56:47;;;;;;;1.53;1.43;;;3.90;99.90;;;;;;5013854;28;20572;-69
2022/01/20 00:59:13;;;;;;;2.75;2.55;;;3.90;99.90;;;;;;5013636;28;20197;-67
2022/01/20 01:01:39;;;;;;;3.07;2.17;;;3.90;99.90;;;;;;5013681;28;20183;-69
2022/01/20 01:04:04;;;;;;;5.03;3.43;;;3.90;99.90;;;;;;5013939;28;20418;-69
2022/01/20 01:08:56;;;;;;;2.00;1.80;;;3.90;99.90;;;;;;5013570;28;20422;-69
2022/01/20 01:11:23;;;;;;;2.73;1.70;;;3.90;99.90;;;;;;5013868;28;20171;-68
2022/01/20 01:13:50;;;;;;;2.13;1.98;;;3.90;99.90;;;;;;5013878;28;20171;-70
2022/01/20 01:16:18;;;;;;;2.00;1.90;;;3.90;99.90;;;;;;5013197;28;20220;-69
2022/01/20 01:23:54;;;;;;;2.70;2.50;;;4.00;99.90;;;;;;5013557;28;20170;-68
2022/01/20 01:26:22;;;;;;;3.53;1.30;;;4.00;99.90;;;;;;5013311;28;20676;-68
2022/01/20 01:28:50;;;;;;;1.70;1.35;;;4.00;99.90;;;;;;5013388;28;20553;-69
2022/01/20 01:31:37;;;;;;;2.50;2.30;;;3.90;99.90;;;;;;5013520;28;20175;-67
2022/01/20 01:34:08;;;;;;;2.33;2.13;;;3.90;99.90;;;;;;5013971;28;20249;-67
2022/01/20 01:39:12;;;;;;;1.98;1.60;;;4.00;99.90;;;;;;5014038;28;20591;-69
2022/01/20 01:41:39;;;;;;;2.20;2.00;;;4.00;99.90;;;;;;5017503;28;20167;-69
2022/01/20 01:44:08;;;;;;;1.90;1.80;;;4.00;99.90;;;;;;5017322;28;20171;-69
2022/01/20 01:46:35;;;;;;;1.45;1.35;;;4.00;99.90;;;;;;5016907;28;20231;-69
2022/01/20 01:49:01;;;;;;;2.28;1.63;;;4.00;99.90;;;;;;5016698;28;20290;-69
2022/01/20 01:51:27;;;;;;;2.15;1.90;;;4.00;99.90;;;;;;5016935;28;20187;-68
2022/01/20 01:53:53;;;;;;;1.67;1.40;;;4.00;99.90;;;;;;5016677;28;20179;-69
2022/01/20 01:56:20;;;;;;;1.65;1.30;;;4.00;99.90;;;;;;5017348;28;20218;-69
2022/01/20 01:58:47;;;;;;;1.77;1.52;;;4.00;99.90;;;;;;5016430;28;20187;-70
2022/01/20 02:01:13;;;;;;;2.20;1.95;;;4.00;99.90;;;;;;5016925;28;20172;-68
2022/01/20 02:03:47;;;;;;;1.45;1.45;;;4.00;99.90;;;;;;5016874;28;20162;-69
2022/01/20 02:19:25;;;;;;;2.05;1.88;;;4.00;99.90;;;;;;5016005;28;20345;-69
2022/01/20 02:21:56;;;;;;;2.13;1.38;;;4.00;99.90;;;;;;5016660;28;20689;-69
2022/01/20 02:24:22;;;;;;;1.23;1.13;;;4.00;99.90;;;;;;5015988;28;20206;-69
2022/01/20 02:26:49;;;;;;;2.60;1.80;;;4.00;99.90;;;;;;5016104;28;20191;-68
2022/01/20 02:29:15;;;;;;;1.52;1.52;;;4.00;99.90;;;;;;5015715;28;20230;-69
2022/01/20 02:31:41;;;;;;;1.50;1.40;;;4.00;99.90;;;;;;5016001;28;20175;-69
2022/01/20 02:34:12;;;;;;;2.13;1.38;;;4.00;99.90;;;;;;5016346;28;20175;-69
2022/01/20 02:36:42;;;;;;;1.73;1.63;;;4.00;99.90;;;;;;5015982;28;20645;-69
2022/01/20 02:39:25;;;;;;;1.10;0.90;;;4.00;99.90;;;;;;5016342;28;20677;-68
2022/01/20 02:47:32;;;;;;;2.22;1.38;;;4.00;99.90;;;;;;5016269;28;20206;-70
2022/01/20 02:49:57;;;;;;;1.73;1.33;;;4.00;99.90;;;;;;5015387;28;20677;-70
2022/01/20 02:52:25;;;;;;;1.33;1.33;;;3.90;99.90;;;;;;5015500;28;20209;-71
2022/01/20 02:54:54;;;;;;;1.88;1.75;;;3.90;99.90;;;;;;5015959;28;20403;-68
2022/01/20 02:57:19;;;;;;;1.45;1.35;;;4.00;99.90;;;;;;5014499;28;20178;-67
2022/01/20 02:59:45;;;;;;;1.07;0.97;;;3.90;99.90;;;;;;5015269;28;20190;-69
2022/01/20 03:02:11;;;;;;;1.23;1.13;;;3.90;99.90;;;;;;5015604;28;20209;-69
2022/01/20 03:04:38;;;;;;;2.38;1.20;;;4.00;99.90;;;;;;5015755;28;20180;-68
2022/01/20 03:07:04;;;;;;;0.80;0.80;;;4.00;99.90;;;;;;5015357;28;20207;-69
2022/01/20 03:09:30;;;;;;;1.05;0.95;;;4.00;99.90;;;;;;5013926;28;20187;-68
2022/01/20 03:11:56;;;;;;;1.70;1.60;;;4.00;99.90;;;;;;5015543;28;20176;-68
2022/01/20 03:14:21;;;;;;;1.73;1.30;;;4.00;99.90;;;;;;5015493;28;20171;-69
2022/01/20 03:16:48;;;;;;;1.37;1.03;;;4.10;99.90;;;;;;5015485;28;20172;-70
2022/01/20 03:19:15;;;;;;;1.80;1.70;;;4.10;99.90;;;;;;5014858;28;20279;-70
2022/01/20 03:21:42;;;;;;;1.90;1.80;;;4.20;99.90;;;;;;5014865;28;20218;-66
2022/01/20 03:24:08;;;;;;;1.05;1.00;;;4.20;99.90;;;;;;5015193;28;20189;-68
2022/01/20 03:26:35;;;;;;;1.75;1.23;;;4.20;99.90;;;;;;5015096;28;20667;-67
2022/01/20 03:29:01;;;;;;;3.20;1.60;;;4.20;99.90;;;;;;5029727;28;20282;-68
2022/01/20 03:31:27;;;;;;;0.68;0.68;;;4.20;99.90;;;;;;5015024;28;20192;-68
2022/01/20 03:33:53;;;;;;;1.00;1.00;;;4.20;99.90;;;;;;5015102;28;20178;-67
2022/01/20 03:36:19;;;;;;;1.60;1.50;;;4.20;99.90;;;;;;5014590;28;20229;-65
2022/01/20 03:38:46;;;;;;;3.23;1.30;;;4.20;99.90;;;;;;5013038;28;20666;-68
2022/01/20 03:41:11;;;;;;;0.93;0.93;;;4.20;99.90;;;;;;5014981;28;20163;-68
2022/01/20 03:43:37;;;;;;;1.57;1.10;;;4.30;99.90;;;;;;5014881;28;20168;-69
2022/01/20 03:46:06;;;;;;;1.70;1.60;;;4.30;99.90;;;;;;5014834;28;20166;-67
2022/01/20 03:48:38;;;;;;;1.33;1.23;;;4.30;99.90;;;;;;5014084;28;20262;-67
2022/01/20 03:51:04;;;;;;;1.45;1.35;;;4.30;99.90;;;;;;5014296;28;20175;-67
2022/01/20 03:53:36;;;;;;;2.83;2.33;;;4.30;99.90;;;;;;5014680;28;20173;-68
2022/01/20 03:56:02;;;;;;;3.95;1.95;;;4.30;99.90;;;;;;5014732;28;20218;-69
2022/01/20 03:58:28;;;;;;;1.53;1.43;;;4.40;99.90;;;;;;5013976;28;20168;-69
2022/01/20 04:00:54;;;;;;;1.37;0.97;;;4.40;99.90;;;;;;5014463;28;20163;-65
2022/01/20 04:03:20;;;;;;;1.83;1.70;;;4.40;99.90;;;;;;5013956;28;20561;-67
2022/01/20 04:05:56;;;;;;;1.63;1.52;;;4.40;99.90;;;;;;5014223;28;20423;-67
2022/01/20 04:08:31;;;;;;;2.63;1.60;;;4.40;99.90;;;;;;5013585;28;20552;-68
2022/01/20 04:11:01;;;;;;;2.28;1.42;;;4.40;99.90;;;;;;5013101;28;20258;-67
2022/01/20 04:13:31;;;;;;;1.63;1.52;;;4.40;99.90;;;;;;5014603;28;20163;-68
2022/01/20 04:16:00;;;;;;;2.90;1.40;;;4.40;99.90;;;;;;5014191;28;20159;-68
2022/01/20 04:18:27;;;;;;;1.35;1.35;;;4.40;99.90;;;;;;5013809;28;20244;-69
2022/01/20 04:20:53;;;;;;;1.67;1.50;;;4.50;99.90;;;;;;5013889;28;20190;-67
2022/01/20 04:23:19;;;;;;;1.42;1.30;;;4.40;99.90;;;;;;5014245;28;20630;-68
2022/01/20 04:25:45;;;;;;;1.47;1.37;;;4.40;99.90;;;;;;5014145;28;20176;-69
2022/01/20 04:28:11;;;;;;;1.85;1.67;;;4.50;99.90;;;;;;5013701;28;20461;-67
2022/01/20 04:30:37;;;;;;;2.33;1.40;;;4.50;99.90;;;;;;5013892;28;20665;-67
2022/01/20 04:33:03;;;;;;;2.42;1.45;;;4.50;99.90;;;;;;5014199;28;20163;-67
2022/01/20 04:35:29;;;;;;;1.80;1.58;;;4.50;99.90;;;;;;5013814;28;20178;-68
2022/01/20 04:37:57;;;;;;;1.97;1.43;;;4.50;99.90;;;;;;5013538;28;20179;-67
2022/01/20 04:40:23;;;;;;;1.85;1.70;;;4.50;99.90;;;;;;5012623;28;20225;-69
2022/01/20 04:42:50;;;;;;;2.70;2.23;;;4.50;99.90;;;;;;5013711;28;20254;-68
2022/01/20 04:45:26;;;;;;;1.48;1.48;;;4.40;99.90;;;;;;5013938;28;20413;-68
2022/01/20 04:48:46;;;;;;;1.58;1.48;;;4.40;99.90;;;;;;5013361;28;20202;-67
2022/01/20 04:58:53;;;;;;;2.10;2.00;;;4.40;99.90;;;;;;5013264;28;20185;-69
2022/01/20 05:01:18;;;;;;;2.60;1.60;;;4.40;99.90;;;;;;5028991;28;20530;-68
2022/01/20 05:03:45;;;;;;;2.10;1.57;;;4.50;99.90;;;;;;5013519;28;20178;-69
2022/01/20 05:06:11;;;;;;;1.50;1.40;;;4.40;99.90;;;;;;5013657;28;20250;-67
2022/01/20 05:08:37;;;;;;;2.10;2.00;;;4.50;99.90;;;;;;5013020;28;20262;-67
2022/01/20 05:11:04;;;;;;;1.90;1.80;;;4.40;99.90;;;;;;5013912;28;20398;-67
2022/01/20 05:13:35;;;;;;;1.08;0.98;;;4.40;99.90;;;;;;5013601;28;20201;-69
2022/01/20 05:16:01;;;;;;;1.60;1.42;;;4.40;99.90;;;;;;5015917;28;20171;-68
2022/01/20 05:18:27;;;;;;;3.53;1.35;;;4.30;99.90;;;;;;5016923;28;20596;-68
2022/01/20 05:20:53;;;;;;;3.23;1.60;;;4.20;99.90;;;;;;5017680;28;20179;-67
2022/01/20 05:23:19;;;;;;;1.97;1.83;;;4.20;99.90;;;;;;5017569;28;20533;-68
2022/01/20 05:25:45;;;;;;;2.23;1.87;;;4.10;99.90;;;;;;5017313;28;20171;-67
2022/01/20 05:28:11;;;;;;;1.80;1.70;;;4.10;99.90;;;;;;5017198;28;20460;-68
2022/01/20 05:30:38;;;;;;;1.37;1.30;;;4.10;99.90;;;;;;5017031;28;20194;-67
2022/01/20 05:33:04;;;;;;;1.52;1.10;;;4.10;99.90;;;;;;5017681;28;20163;-66
2022/01/20 05:35:30;;;;;;;2.33;1.67;;;4.10;99.90;;;;;;5017241;28;20495;-69
2022/01/20 05:37:56;;;;;;;1.30;1.30;;;4.10;99.90;;;;;;5016957;28;20385;-67
2022/01/20 05:40:22;;;;;;;2.13;1.45;;;4.00;99.90;;;;;;5015652;28;20191;-68
2022/01/20 05:42:47;;;;;;;1.73;1.63;;;4.00;99.90;;;;;;5016650;28;20641;-67
2022/01/20 05:45:13;;;;;;;2.00;1.80;;;4.00;99.90;;;;;;5016555;28;20471;-66
2022/01/20 05:47:45;;;;;;;1.93;1.80;;;4.00;99.90;;;;;;5016829;28;20202;-68
2022/01/20 05:50:18;;;;;;;1.38;1.38;;;4.00;99.90;;;;;;5016677;28;20554;-69
2022/01/20 05:52:45;;;;;;;1.65;1.55;;;4.00;99.90;;;;;;5009644;28;20205;-71
2022/01/20 05:55:16;;;;;;;2.33;2.13;;;4.00;99.90;;;;;;5001330;28;20171;-69
2022/01/20 05:57:42;;;;;;;2.53;2.33;;;4.00;99.90;;;;;;5007129;28;20580;-67
2022/01/20 06:00:12;;;;;;;1.50;1.20;;;3.90;99.90;;;;;;5016483;28;20206;-69
2022/01/20 06:03:36;;;;;;;1.45;1.35;;;4.00;99.90;;;;;;5016192;28;20856;-67
2022/01/20 06:05:24;;;;;;;2.00;1.58;;;4.00;99.90;;;;;;5016406;28;20179;-67
2022/01/20 06:07:50;;;;;;;2.88;1.40;;;4.00;99.90;;;;;;5016122;28;20555;-65
2022/01/20 06:10:16;;;;;;;2.60;1.02;;;4.00;99.90;;;;;;5016645;28;20184;-68
2022/01/20 06:12:42;;;;;;;1.42;1.33;;;4.10;99.90;;;;;;5016819;28;20179;-66
2022/01/20 06:15:10;;;;;;;12.63;2.17;;;4.10;99.90;;;;;;5014565;28;20182;-69
2022/01/20 06:17:37;;;;;;;0.95;0.95;;;4.00;99.90;;;;;;5013922;28;20422;-68
2022/01/20 06:20:07;;;;;;;2.20;1.88;;;4.00;99.90;;;;;;5014296;28;20274;-69
2022/01/20 06:22:32;;;;;;;3.00;2.80;;;3.90;99.90;;;;;;5014148;28;20190;-67
2022/01/20 06:24:58;;;;;;;1.90;1.80;;;3.80;99.90;;;;;;5013546;28;20592;-66
2022/01/20 06:27:24;;;;;;;3.10;1.77;;;3.80;99.90;;;;;;5014016;28;20247;-66
2022/01/20 06:29:50;;;;;;;3.07;1.70;;;3.70;99.90;;;;;;5014113;28;20195;-66
2022/01/20 06:32:15;;;;;;;1.67;1.57;;;3.70;99.90;;;;;;5016344;28;20178;-64
2022/01/20 06:34:41;;;;;;;1.43;1.40;;;3.70;99.90;;;;;;5016672;28;20475;-66
2022/01/20 06:37:07;;;;;;;1.73;1.63;;;3.60;99.90;;;;;;5036482;28;20190;-64
2022/01/20 06:39:32;;;;;;;2.13;1.90;;;3.60;99.90;;;;;;5015542;28;20238;-65
2022/01/20 06:41:58;;;;;;;3.43;1.50;;;3.60;99.90;;;;;;5015903;28;20174;-65
2022/01/20 06:44:23;;;;;;;1.60;1.40;;;3.60;99.90;;;;;;5012089;28;20209;-64
2022/01/20 06:46:50;;;;;;;9.50;2.43;;;3.60;99.90;;;;;;5008609;28;20203;-64
2022/01/20 06:49:17;;;;;;;1.63;1.45;;;3.70;99.90;;;;;;5011623;28;20205;-64
2022/01/20 06:51:46;;;;;;;1.05;1.05;;;3.70;99.90;;;;;;5015675;28;20162;-65
2022/01/20 06:54:12;;;;;;;2.78;1.48;;;3.80;99.90;;;;;;5015234;28;20210;-66
2022/01/20 06:56:41;;;;;;;2.00;1.80;;;3.80;99.90;;;;;;5015661;28;20167;-66
2022/01/20 06:59:14;;;;;;;2.40;1.73;;;3.80;99.90;;;;;;5014824;28;20312;-65
2022/01/20 07:01:41;;;;;;;2.10;2.00;;;3.80;99.90;;;;;;5015207;28;20183;-65
2022/01/20 07:04:09;;;;;;;2.28;1.98;;;3.80;99.90;;;;;;5015062;28;20187;-64
2022/01/20 07:06:36;;;;;;;3.35;3.08;;;3.70;99.90;;;;;;5015233;28;20194;-64
2022/01/20 07:09:03;;;;;;;2.05;1.85;;;3.70;99.90;;;;;;5014708;28;20218;-66
2022/01/20 07:11:30;;;;;;;3.83;3.28;;;3.60;99.90;;;;;;5015043;28;20233;-64
2022/01/20 07:13:55;;;;;;;2.17;1.90;;;3.60;99.90;;;;;;5014848;28;20171;-64
2022/01/20 07:16:21;;;;;;;3.43;2.83;;;3.60;99.90;;;;;;5015231;28;20155;-65
2022/01/20 07:18:47;;;;;;;3.37;2.37;;;3.60;99.90;;;;;;5013735;28;20678;-64
2022/01/20 07:21:12;;;;;;;1.83;1.47;;;3.60;99.90;;;;;;5015073;28;20567;-66
2022/01/20 07:23:38;;;;;;;2.10;2.00;;;3.60;99.90;;;;;;5015097;28;20181;-64
2022/01/20 07:26:03;;;;;;;1.87;1.77;;;3.50;99.90;;;;;;5012897;28;20175;-66
2022/01/20 07:28:29;;;;;;;4.33;2.17;;;3.50;99.90;;;;;;5014139;28;20253;-65
2022/01/20 07:30:55;;;;;;;3.03;2.57;;;3.50;99.90;;;;;;5010246;28;20591;-65
2022/01/20 07:33:21;;;;;;;2.67;2.47;;;3.50;99.90;;;;;;5013269;28;20167;-65
2022/01/20 07:35:47;;;;;;;4.37;3.37;;;3.40;99.90;;;;;;5014202;28;20644;-66
2022/01/20 07:38:12;;;;;;;1.40;1.40;;;3.40;99.90;;;;;;5013589;28;20896;-65
2022/01/20 07:40:38;;;;;;;2.27;2.07;;;3.40;99.90;;;;;;5013000;28;20213;-64
2022/01/20 07:43:04;;;;;;;1.73;1.60;;;3.40;99.90;;;;;;5014072;28;20263;-65
2022/01/20 07:45:30;;;;;;;3.67;3.25;;;3.40;99.90;;;;;;5013998;28;20277;-66
2022/01/20 07:47:56;;;;;;;1.95;1.67;;;3.40;99.90;;;;;;5012547;28;20206;-66
2022/01/20 07:50:21;;;;;;;3.20;2.37;;;3.50;99.90;;;;;;5014104;28;20210;-63
2022/01/20 07:52:47;;;;;;;2.80;2.20;;;3.60;99.90;;;;;;5013490;28;20175;-67
2022/01/20 07:55:14;;;;;;;2.00;1.87;;;3.60;99.90;;;;;;5014607;28;20171;-65
2022/01/20 07:57:40;;;;;;;2.35;1.85;;;3.70;99.90;;;;;;5013517;28;20258;-65
2022/01/20 08:00:07;;;;;;;1.77;1.53;;;3.80;99.90;;;;;;5013786;28;20273;-66
2022/01/20 08:02:33;;;;;;;1.52;1.50;;;3.80;99.90;;;;;;5012580;28;20520;-65
2022/01/20 08:04:59;;;;;;;2.70;2.28;;;4.00;99.90;;;;;;5013527;28;20657;-66
2022/01/20 08:07:25;;;;;;;2.57;1.97;;;4.10;99.90;;;;;;5014246;28;20191;-66
2022/01/20 08:09:56;;;;;;;2.13;1.90;;;4.30;99.90;;;;;;5013183;28;20448;-65
2022/01/20 08:12:23;;;;;;;2.20;1.40;;;4.50;99.90;;;;;;5013569;28;20183;-74
2022/01/20 08:14:49;;;;;;;2.38;1.83;;;4.60;99.90;;;;;;5014062;28;20182;-69
2022/01/20 08:17:15;;;;;;;2.10;1.95;;;4.60;99.90;;;;;;5014024;28;20171;-66
2022/01/20 08:19:41;;;;;;;1.87;1.73;;;4.70;99.90;;;;;;5013240;28;20199;-65
2022/01/20 08:22:06;;;;;;;5.10;2.17;;;4.80;99.90;;;;;;5013866;28;20187;-67
2022/01/20 08:24:33;;;;;;;3.67;1.70;;;4.80;99.90;;;;;;5014297;28;20171;-65
2022/01/20 08:27:00;;;;;;;1.67;1.52;;;4.90;99.90;;;;;;5014789;28;20205;-66
2022/01/20 08:29:25;;;;;;;1.05;1.05;;;4.90;99.90;;;;;;5007995;28;20195;-65
2022/01/20 08:31:51;;;;;;;2.40;2.20;;;5.00;99.90;;;;;;5014090;28;20244;-66
2022/01/20 08:34:17;;;;;;;1.30;1.20;;;5.00;99.90;;;;;;5012791;28;20250;-65
2022/01/20 08:36:44;;;;;;;1.60;1.27;;;4.90;99.90;;;;;;5013944;28;20418;-67
2022/01/20 08:41:55;;;;;;;3.75;1.55;;;5.00;99.90;;;;;;5013847;28;20603;-67
2022/01/20 08:44:20;;;;;;;1.40;1.30;;;5.00;99.90;;;;;;5012432;28;20273;-65
2022/01/20 08:46:47;;;;;;;2.73;1.47;;;4.90;99.90;;;;;;5013252;28;20282;-67
2022/01/20 08:49:13;;;;;;;3.63;1.40;;;4.90;99.90;;;;;;5013386;28;20220;-66
2022/01/20 08:51:40;;;;;;;3.07;2.37;;;4.80;99.90;;;;;;5012740;28;20211;-67
2022/01/20 08:54:06;;;;;;;1.40;1.30;;;4.80;99.90;;;;;;5013411;28;20207;-66
2022/01/20 08:56:35;;;;;;;2.90;1.80;;;4.90;99.90;;;;;;5013418;28;20199;-66
2022/01/20 08:59:02;;;;;;;4.18;1.75;;;4.90;99.90;;;;;;5013024;28;20196;-65
2022/01/20 09:01:29;;;;;;;5.43;2.35;;;4.90;99.90;;;;;;5013645;28;20172;-66
2022/01/20 09:03:54;;;;;;;2.35;1.88;;;4.90;99.90;;;;;;5013701;28;20177;-65
2022/01/20 09:06:20;;;;;;;2.60;1.87;;;4.90;99.90;;;;;;5013724;28;20175;-67
2022/01/20 09:08:47;;;;;;;1.73;1.63;;;4.90;99.90;;;;;;5012798;28;20441;-65
2022/01/20 09:11:22;;;;;;;3.33;2.17;;;4.90;99.90;;;;;;5013587;28;20410;-65
2022/01/20 09:16:35;;;;;;;2.70;1.17;;;5.00;99.90;;;;;;5013868;28;20185;-66
2022/01/20 09:19:01;;;;;;;2.58;1.70;;;5.20;99.90;;;;;;5012686;28;20204;-67
2022/01/20 09:21:28;;;;;;;3.90;1.70;;;5.30;99.90;;;;;;5013214;28;20187;-66
2022/01/20 09:23:55;;;;;;;5.50;2.13;;;5.40;99.90;;;;;;5012133;28;20185;-66
2022/01/20 09:26:21;;;;;;;1.73;1.63;;;5.80;99.90;;;;;;5013340;28;20170;-66
2022/01/20 09:28:47;;;;;;;1.92;1.83;;;6.40;99.90;;;;;;5013001;28;20198;-67
2022/01/20 09:31:13;;;;;;;2.20;1.60;;;6.70;99.90;;;;;;5013900;28;20169;-67
2022/01/20 09:33:39;;;;;;;1.50;1.40;;;6.70;99.90;;;;;;5013051;28;20424;-67
2022/01/20 09:36:10;;;;;;;1.77;1.67;;;6.60;99.90;;;;;;5013399;28;20621;-66
2022/01/20 09:38:36;;;;;;;1.40;1.40;;;6.50;99.90;;;;;;5012957;28;20589;-65
2022/01/20 09:41:03;;;;;;;2.58;2.35;;;6.50;99.90;;;;;;5013515;28;20544;-64
2022/01/20 09:43:30;;;;;;;2.72;1.83;;;6.50;99.90;;;;;;5013321;28;20185;-65
2022/01/20 09:45:56;;;;;;;2.65;1.80;;;6.40;99.90;;;;;;5013521;28;20228;-66
2022/01/20 09:48:22;;;;;;;1.83;1.17;;;6.30;99.90;;;;;;5012592;28;20214;-65
2022/01/20 09:50:49;;;;;;;2.08;1.55;;;6.30;99.90;;;;;;5013015;28;20428;-66
2022/01/20 09:53:15;;;;;;;1.60;1.50;;;6.20;99.90;;;;;;5011623;28;20174;-67
2022/01/20 09:55:42;;;;;;;1.65;1.55;;;6.10;99.90;;;;;;5012801;28;20288;-67
2022/01/20 09:58:09;;;;;;;1.85;1.75;;;6.20;99.90;;;;;;5012599;28;20229;-66
2022/01/20 10:00:36;;;;;;;1.85;1.70;;;6.10;99.90;;;;;;5014484;28;20192;-65
2022/01/20 10:03:08;;;;;;;1.58;1.48;;;6.20;99.90;;;;;;5016503;28;20257;-66
2022/01/20 10:05:39;;;;;;;6.45;1.95;;;6.10;99.90;;;;;;5016868;28;20272;-66
2022/01/20 10:08:25;;;;;;;1.40;1.30;;;6.10;99.90;;;;;;5016173;28;20620;-67
2022/01/20 10:11:00;;;;;;;6.82;2.63;;;6.10;99.90;;;;;;5016195;28;20253;-66
2022/01/20 10:13:30;;;;;;;3.08;1.92;;;6.00;99.90;;;;;;5016744;28;20245;-67
2022/01/20 10:16:03;;;;;;;2.85;1.63;;;5.90;99.90;;;;;;5016339;28;20514;-65
2022/01/20 10:18:31;;;;;;;8.55;3.17;;;5.90;99.90;;;;;;5015760;28;20178;-66
2022/01/20 10:21:00;;;;;;;1.77;1.67;;;6.00;99.90;;;;;;5017300;28;20596;-67
2022/01/20 10:23:39;;;;;;;2.95;2.00;;;6.00;99.90;;;;;;5016532;28;20578;-67
2022/01/20 10:26:23;;;;;;;4.55;1.98;;;6.00;99.90;;;;;;5016294;28;20521;-66
2022/01/20 10:28:54;;;;;;;2.53;2.38;;;5.90;99.90;;;;;;5015809;28;20536;-65
2022/01/20 10:31:40;;;;;;;3.38;2.40;;;5.90;99.90;;;;;;5016079;28;20210;-65
2022/01/20 10:34:28;;;;;;;2.40;2.17;;;5.90;99.90;;;;;;5016387;28;20290;-66
2022/01/20 10:36:56;;;;;;;2.58;1.98;;;5.90;99.90;;;;;;5016306;28;20189;-67
2022/01/20 10:39:29;;;;;;;2.13;1.92;;;5.90;99.90;;;;;;5015361;28;20204;-65
2022/01/20 10:42:06;;;;;;;3.50;1.88;;;5.90;99.90;;;;;;5015973;28;20236;-65
2022/01/20 10:44:55;;;;;;;5.35;2.00;;;5.90;99.90;;;;;;5016078;28;20179;-66
2022/01/20 10:47:26;;;;;;;1.75;1.55;;;6.00;99.90;;;;;;5014436;28;20243;-66
2022/01/20 10:49:52;;;;;;;2.72;1.95;;;6.10;99.90;;;;;;5015604;28;20237;-65
2022/01/20 10:52:21;;;;;;;2.47;2.23;;;6.30;99.90;;;;;;5016255;28;20167;-66
2022/01/20 10:54:50;;;;;;;3.58;1.60;;;6.30;99.90;;;;;;5015866;28;20425;-63
2022/01/20 10:57:16;;;;;;;1.48;1.38;;;6.30;99.90;;;;;;5015904;28;20251;-66
2022/01/20 10:59:55;;;;;;;1.83;1.73;;;6.40;99.90;;;;;;5015256;28;20288;-65
2022/01/20 11:02:23;;;;;;;3.67;2.17;;;6.40;99.90;;;;;;5015693;28;20536;-66
2022/01/20 11:04:49;;;;;;;7.22;2.10;;;6.40;99.90;;;;;;5014262;28;20637;-65
2022/01/20 11:07:15;;;;;;;2.25;2.13;;;6.50;99.90;;;;;;5015766;28;20559;-64
2022/01/20 11:09:46;;;;;;;7.00;2.30;;;6.50;99.90;;;;;;5015157;28;20273;-66
2022/01/20 11:12:16;;;;;;;2.50;1.95;;;6.40;99.90;;;;;;5015343;28;20421;-67
2022/01/20 11:14:45;;;;;;;2.47;1.33;;;6.30;99.90;;;;;;5015698;28;20174;-67
2022/01/20 11:17:30;;;;;;;2.33;2.05;;;6.20;99.90;;;;;;5015413;28;20188;-66
2022/01/20 11:20:07;;;;;;;1.05;1.05;;;6.10;99.90;;;;;;5014958;28;20196;-64
2022/01/20 11:22:33;;;;;;;3.35;2.03;;;6.10;99.90;;;;;;5015653;28;20524;-65
2022/01/20 11:25:09;;;;;;;2.30;1.50;;;6.10;99.90;;;;;;5015389;28;20182;-64
2022/01/20 11:27:41;;;;;;;3.35;1.60;;;6.00;99.90;;;;;;5015077;28;20551;-65
2022/01/20 11:30:39;;;;;;;1.63;1.50;;;6.00;99.90;;;;;;5015308;28;20191;-66
2022/01/20 11:33:15;;;;;;;2.88;1.98;;;6.10;99.90;;;;;;5026672;28;20222;-66
2022/01/20 11:35:46;;;;;;;7.90;1.90;;;6.10;99.90;;;;;;5015089;28;20174;-65
2022/01/20 11:38:19;;;;;;;2.15;1.95;;;6.10;99.90;;;;;;5014849;28;20164;-67
2022/01/20 11:40:58;;;;;;;1.20;1.20;;;6.30;99.90;;;;;;5015107;28;20201;-65
2022/01/20 11:43:41;;;;;;;2.13;1.95;;;6.50;99.90;;;;;;5015052;28;20173;-66
2022/01/20 11:46:18;;;;;;;3.17;1.65;;;6.70;99.90;;;;;;5013135;28;20243;-67
2022/01/20 11:49:02;;;;;;;2.25;1.88;;;6.90;99.90;;;;;;5014146;28;20194;-64
2022/01/20 11:51:51;;;;;;;6.07;2.25;;;7.10;99.90;;;;;;5014542;28;20181;-68
2022/01/20 11:54:40;;;;;;;1.77;1.67;;;7.30;99.90;;;;;;5014726;28;20184;-66
2022/01/20 11:57:28;;;;;;;2.08;1.98;;;7.40;99.90;;;;;;5014608;28;20170;-66
2022/01/20 11:59:58;;;;;;;2.67;2.00;;;7.40;99.90;;;;;;5014024;28;20669;-66
2022/01/20 12:02:38;;;;;;;3.28;1.70;;;7.50;99.90;;;;;;5014512;28;20181;-64
2022/01/20 12:05:29;;;;;;;1.60;1.50;;;7.60;99.90;;;;;;5014721;28;20204;-67
2022/01/20 12:08:10;;;;;;;2.03;1.77;;;7.50;99.90;;;;;;5014119;28;20205;-65
2022/01/20 12:10:39;;;;;;;1.63;1.40;;;7.50;99.90;;;;;;4994805;28;20223;-65
2022/01/20 12:13:10;;;;;;;1.60;1.50;;;7.50;99.90;;;;;;4994911;28;20174;-66
2022/01/20 12:15:48;;;;;;;3.70;2.03;;;7.50;99.90;;;;;;4993620;28;20748;-67
2022/01/20 12:18:14;;;;;;;1.40;0.82;;;7.30;99.90;;;;;;4994484;28;20175;-65
2022/01/20 12:20:39;;;;;;;0.70;0.60;;;6.70;99.90;;;;;;4995113;28;20193;-69
2022/01/20 12:23:05;;;;;;;3.60;1.50;;;5.60;99.90;;;;;;4997680;28;20416;-66
2022/01/20 12:25:33;;;;;;;0.70;0.70;;;4.80;99.90;;;;;;5016233;28;20176;-68
2022/01/20 12:28:08;;;;;;;3.78;0.90;;;4.00;99.90;;;;;;5014458;28;20203;-69
2022/01/20 12:30:36;;;;;;;1.05;1.05;;;3.50;99.90;;;;;;5014793;28;20178;-67
2022/01/20 12:33:11;;;;;;;0.77;0.70;;;3.20;99.90;;;;;;5014393;28;20163;-67
2022/01/20 12:35:41;;;;;;;5.28;0.90;;;3.00;99.90;;;;;;5014510;28;20259;-65
2022/01/20 12:38:22;;;;;;;0.47;0.47;;;2.90;99.90;;;;;;5013591;28;20537;-66
2022/01/20 12:41:00;;;;;;;1.35;0.82;;;2.80;99.90;;;;;;5013994;28;20194;-67
2022/01/20 12:43:36;;;;;;;4.53;1.27;;;2.70;99.90;;;;;;5014062;28;20182;-69
2022/01/20 12:46:02;;;;;;;2.60;1.10;;;2.70;99.90;;;;;;5014297;28;20159;-66
2022/01/20 12:48:27;;;;;;;1.53;1.17;;;2.70;99.90;;;;;;5013517;28;20198;-68
2022/01/20 12:51:05;;;;;;;0.83;0.80;;;2.70;99.90;;;;;;5014001;28;20182;-67
2022/01/20 12:53:33;;;;;;;0.70;0.70;;;2.70;99.90;;;;;;5013819;28;20171;-69
2022/01/20 12:55:58;;;;;;;3.03;1.95;;;2.70;99.90;;;;;;5013814;28;20175;-67
2022/01/20 12:58:24;;;;;;;0.57;0.57;;;2.80;99.90;;;;;;5013288;28;20181;-68
2022/01/20 13:01:03;;;;;;;3.97;1.30;;;2.80;99.90;;;;;;5014346;28;20257;-67
2022/01/20 13:03:40;;;;;;;0.80;0.80;;;2.80;99.90;;;;;;5013819;28;20173;-72
2022/01/20 13:06:11;;;;;;;1.50;0.88;;;2.90;99.90;;;;;;5013846;28;20544;-68
2022/01/20 13:08:40;;;;;;;1.25;1.15;;;2.90;99.90;;;;;;5013324;28;20612;-70
2022/01/20 13:11:10;;;;;;;2.25;1.25;;;3.00;99.90;;;;;;5023051;28;20250;-66
2022/01/20 13:13:36;;;;;;;0.82;0.82;;;3.00;99.90;;;;;;5025355;28;20227;-65
2022/01/20 13:16:15;;;;;;;0.80;0.80;;;3.10;99.90;;;;;;5027687;28;20167;-67
2022/01/20 13:18:57;;;;;;;1.58;1.48;;;3.10;99.90;;;;;;5016672;28;20213;-68
2022/01/20 13:21:54;;;;;;;1.27;1.17;;;3.20;99.90;;;;;;5015223;28;20175;-67
2022/01/20 13:24:28;;;;;;;1.30;0.98;;;3.20;99.90;;;;;;5015407;28;20217;-66
2022/01/20 13:26:55;;;;;;;0.65;0.65;;;3.20;99.90;;;;;;5015089;28;20210;-68
2022/01/20 13:29:23;;;;;;;0.73;0.73;;;3.20;99.90;;;;;;5012818;28;20206;-68
2022/01/20 13:31:56;;;;;;;1.05;0.75;;;3.20;99.90;;;;;;5013554;28;20254;-69
2022/01/20 13:34:23;;;;;;;4.65;2.80;;;3.10;99.90;;;;;;5013619;28;20245;-67
2022/01/20 13:36:51;;;;;;;2.60;1.15;;;3.20;99.90;;;;;;5016963;28;20229;-68
2022/01/20 13:39:37;;;;;;;6.35;1.02;;;3.20;99.90;;;;;;5016698;28;20194;-69
2022/01/20 13:42:23;;;;;;;3.83;1.40;;;3.20;99.90;;;;;;5017085;28;20167;-68
2022/01/20 13:45:03;;;;;;;2.25;2.05;;;3.20;99.90;;;;;;5017177;28;20167;-69
2022/01/20 13:47:29;;;;;;;1.20;1.20;;;3.20;99.90;;;;;;5015454;28;20221;-67
2022/01/20 13:49:55;;;;;;;3.63;1.43;;;3.30;99.90;;;;;;5016702;28;20198;-67
2022/01/20 13:52:22;;;;;;;1.08;1.08;;;3.30;99.90;;;;;;5016974;28;20269;-69
2022/01/20 13:54:54;;;;;;;5.30;1.45;;;3.30;99.90;;;;;;5016562;28;20217;-67
2022/01/20 13:57:20;;;;;;;1.27;1.27;;;3.40;99.90;;;;;;5015634;28;20270;-67
2022/01/20 13:59:49;;;;;;;1.02;1.02;;;3.40;99.90;;;;;;5016094;28;20546;-69
2022/01/20 14:02:14;;;;;;;4.13;1.58;;;3.40;99.90;;;;;;5016967;28;20191;-67
2022/01/20 14:04:40;;;;;;;2.43;1.80;;;3.30;99.90;;;;;;5016781;28;20225;-68
2022/01/20 14:07:05;;;;;;;2.50;1.27;;;3.30;99.90;;;;;;5016899;28;20285;-66
2022/01/20 14:09:31;;;;;;;1.43;1.33;;;3.30;99.90;;;;;;5016186;28;20621;-68
2022/01/20 14:11:57;;;;;;;3.50;0.97;;;3.40;99.90;;;;;;5016939;28;20167;-68